Time;durP1;ratioP1;P1;durP2;ratioP2;P2;SDS_P1;SDS_P2;PMS_P1;PMS_P2;Temp;Humidity;BMP_temperature;BMP_pressure;BME280_temperature;BME280_humidity;BME280_pressure;Samples;Min_cycle;Max_cycle;Signal;HPM_P1;HPM_P2
2022/08/05 00:01:47;;;;;;;3.20;2.08;;;;;;;24.62;54.21;92840.88;2070871;69;20143;-74
2022/08/05 00:04:13;;;;;;;2.97;2.05;;;;;;;24.68;54.43;92838.03;2070384;69;20207;-75
2022/08/05 00:06:40;;;;;;;2.78;2.10;;;;;;;24.82;53.59;92849.69;2070497;69;20140;-75
2022/08/05 00:09:05;;;;;;;4.15;2.30;;;;;;;24.05;57.58;92843.75;2070504;69;20199;-73
2022/08/05 00:11:31;;;;;;;2.53;2.03;;;;;;;24.54;55.75;92845.09;2071018;69;20172;-74
2022/08/05 00:14:02;;;;;;;2.17;1.90;;;;;;;23.62;58.82;92837.41;2071137;69;20136;-75
2022/08/05 00:16:27;;;;;;;3.53;2.30;;;;;;;24.12;58.20;92841.69;2065183;69;20153;-74
2022/08/05 00:18:53;;;;;;;3.17;2.10;;;;;;;23.83;60.00;92826.97;2067596;69;20218;-75
2022/08/05 00:21:19;;;;;;;3.17;2.35;;;;;;;24.32;56.71;92830.44;2067774;69;20155;-76
2022/08/05 00:23:47;;;;;;;7.07;2.40;;;;;;;24.25;56.89;92826.03;2071431;69;20205;-76
2022/08/05 00:26:14;;;;;;;2.58;2.30;;;;;;;24.29;55.54;92817.47;2067347;69;20500;-75
2022/08/05 00:28:39;;;;;;;3.55;2.50;;;;;;;24.16;56.86;92825.22;2070550;69;20187;-74
2022/08/05 00:31:05;;;;;;;4.13;2.70;;;;;;;24.38;56.33;92812.56;2070500;69;20565;-75
2022/08/05 00:33:33;;;;;;;3.17;2.88;;;;;;;24.04;57.36;92810.69;2070343;69;20152;-74
2022/08/05 00:35:59;;;;;;;4.30;2.67;;;;;;;24.28;56.46;92810.25;2070607;69;20585;-74
2022/08/05 00:38:25;;;;;;;3.33;2.50;;;;;;;24.07;57.00;92815.03;2070511;69;20148;-74
2022/08/05 00:40:53;;;;;;;2.80;2.47;;;;;;;24.20;57.10;92816.66;2070551;69;20152;-74
2022/08/05 00:43:19;;;;;;;4.07;2.58;;;;;;;24.34;56.00;92813.94;2067087;69;20187;-74
2022/08/05 00:45:47;;;;;;;3.13;2.33;;;;;;;24.24;57.18;92819.56;2070494;69;20650;-74
2022/08/05 00:48:15;;;;;;;2.58;2.38;;;;;;;24.19;57.35;92814.44;2070618;69;20588;-74
2022/08/05 00:50:44;;;;;;;4.00;2.40;;;;;;;23.67;59.81;92829.59;2070486;69;20585;-74
2022/08/05 00:53:10;;;;;;;5.22;2.85;;;;;;;23.97;59.03;92826.41;2071141;69;20257;-75
2022/08/05 00:55:36;;;;;;;3.67;2.80;;;;;;;24.05;57.74;92833.00;2070859;69;20216;-74
2022/08/05 00:58:02;;;;;;;3.53;2.50;;;;;;;24.02;58.19;92831.53;2070874;69;20167;-74
2022/08/05 01:00:30;;;;;;;3.60;2.80;;;;;;;23.86;59.46;92816.91;2067700;69;20231;-74
2022/08/05 01:02:57;;;;;;;2.90;2.60;;;;;;;24.04;58.60;92822.91;2070943;69;20140;-74
2022/08/05 01:05:23;;;;;;;3.63;2.65;;;;;;;23.89;58.91;92821.28;2070940;69;20140;-74
2022/08/05 01:07:49;;;;;;;3.70;2.70;;;;;;;23.92;57.88;92833.53;2067663;69;20155;-74
2022/08/05 01:10:19;;;;;;;2.78;2.17;;;;;;;23.86;59.20;92828.41;2071251;69;20136;-75
2022/08/05 01:12:51;;;;;;;5.03;2.45;;;;;;;23.79;57.58;92824.03;2071191;69;20148;-75
2022/08/05 01:15:20;;;;;;;3.60;2.50;;;;;;;23.59;59.67;92827.31;2067822;69;20168;-74
2022/08/05 01:17:51;;;;;;;3.15;2.67;;;;;;;23.83;57.79;92827.69;2071076;69;20224;-73
2022/08/05 01:20:53;;;;;;;3.03;2.72;;;;;;;23.58;60.05;92832.31;2071389;69;20183;-75
2022/08/05 01:23:39;;;;;;;7.93;2.80;;;;;;;23.52;60.81;92826.50;2070912;69;20267;-75
2022/08/05 01:26:28;;;;;;;7.03;3.22;;;;;;;23.55;60.25;92818.66;2070950;69;20759;-75
2022/08/05 01:29:02;;;;;;;3.20;2.65;;;;;;;23.75;59.27;92824.69;2071293;69;20152;-74
2022/08/05 01:31:53;;;;;;;4.10;2.72;;;;;;;23.32;61.09;92820.44;2071589;69;20152;-74
2022/08/05 01:34:27;;;;;;;3.70;2.70;;;;;;;23.68;59.08;92831.78;2071411;69;20132;-72
2022/08/05 01:37:14;;;;;;;4.25;3.05;;;;;;;23.68;59.67;92828.91;2071459;69;20144;-73
2022/08/05 01:39:45;;;;;;;4.65;3.00;;;;;;;23.50;60.12;92828.59;2071314;69;20638;-74
2022/08/05 01:42:18;;;;;;;4.03;3.17;;;;;;;23.26;61.80;92826.81;2067909;69;20408;-73
2022/08/05 01:44:45;;;;;;;3.33;2.95;;;;;;;23.23;61.54;92830.34;2070802;69;20175;-74
2022/08/05 01:47:13;;;;;;;4.68;3.00;;;;;;;23.32;60.61;92829.06;2071028;69;20164;-74
2022/08/05 01:49:40;;;;;;;4.00;3.00;;;;;;;23.37;60.82;92830.59;2071106;69;20497;-75
2022/08/05 01:52:07;;;;;;;5.65;2.90;;;;;;;23.40;61.00;92826.31;2071131;69;20144;-74
2022/08/05 01:55:01;;;;;;;4.25;2.65;;;;;;;23.48;60.85;92819.97;2070859;69;20218;-74
2022/08/05 01:57:31;;;;;;;4.78;2.83;;;;;;;23.31;61.36;92822.59;2066965;69;20148;-74
2022/08/05 02:00:00;;;;;;;4.13;3.17;;;;;;;23.32;61.67;92818.31;2070953;69;20176;-75
2022/08/05 02:02:30;;;;;;;4.05;3.15;;;;;;;23.46;58.61;92826.41;2067748;69;20247;-74
2022/08/05 02:05:06;;;;;;;5.38;3.03;;;;;;;23.65;59.72;92832.47;2067403;69;20209;-74
2022/08/05 02:07:33;;;;;;;4.85;3.03;;;;;;;23.45;60.14;92833.56;2068123;69;20255;-74
2022/08/05 02:09:59;;;;;;;4.25;3.08;;;;;;;22.84;63.67;92826.84;2071096;69;20577;-74
2022/08/05 02:12:40;;;;;;;3.67;3.22;;;;;;;23.03;63.17;92831.47;2071000;69;20148;-74
2022/08/05 02:15:12;;;;;;;5.28;3.30;;;;;;;23.04;62.81;92832.19;2071161;69;20136;-74
2022/08/05 02:17:44;;;;;;;4.78;3.25;;;;;;;23.10;62.87;92834.47;2070807;69;20203;-74
2022/08/05 02:20:17;;;;;;;5.50;3.35;;;;;;;23.21;60.76;92833.19;2067518;69;20124;-74
2022/08/05 02:22:45;;;;;;;4.10;3.30;;;;;;;22.91;63.17;92837.03;2070929;69;20612;-74
2022/08/05 02:25:21;;;;;;;3.70;2.90;;;;;;;23.29;61.31;92821.84;2070943;69;20144;-75
2022/08/05 02:27:49;;;;;;;4.13;3.20;;;;;;;23.23;61.80;92828.22;2070894;69;20238;-73
2022/08/05 02:30:17;;;;;;;4.75;3.10;;;;;;;23.04;62.56;92826.47;2070975;69;20159;-74
2022/08/05 02:32:46;;;;;;;3.97;3.08;;;;;;;23.06;61.54;92823.63;2070975;69;20206;-74
2022/08/05 02:35:17;;;;;;;4.22;3.30;;;;;;;22.87;63.96;92821.88;2070901;69;20642;-73
2022/08/05 02:37:44;;;;;;;4.38;3.00;;;;;;;23.41;60.87;92827.75;2071088;69;20148;-74
2022/08/05 02:40:10;;;;;;;5.38;3.20;;;;;;;23.34;60.40;92826.94;2071051;69;20206;-75
2022/08/05 02:42:40;;;;;;;11.40;3.30;;;;;;;23.21;60.92;92830.34;2070939;69;20156;-74
2022/08/05 02:45:08;;;;;;;4.57;3.20;;;;;;;23.30;61.38;92834.78;2070632;69;20187;-73
2022/08/05 02:47:35;;;;;;;6.60;3.60;;;;;;;23.29;61.13;92822.56;2070824;69;20168;-74
2022/08/05 02:50:03;;;;;;;3.70;3.13;;;;;;;23.38;61.28;92828.44;2071073;69;20156;-74
2022/08/05 02:52:31;;;;;;;3.47;3.13;;;;;;;23.30;61.35;92826.88;2070740;69;20160;-73
2022/08/05 02:55:00;;;;;;;5.25;3.33;;;;;;;23.31;60.94;92816.84;2070725;69;20179;-73
2022/08/05 02:57:26;;;;;;;4.90;3.30;;;;;;;23.36;60.56;92816.91;2070963;69;20185;-73
2022/08/05 02:59:53;;;;;;;3.92;3.20;;;;;;;23.31;60.16;92821.88;2070970;69;20235;-73
2022/08/05 03:02:22;;;;;;;4.45;3.35;;;;;;;23.05;61.74;92817.19;2070612;69;20157;-75
2022/08/05 03:04:50;;;;;;;4.50;3.22;;;;;;;23.18;61.16;92820.94;2070726;69;20565;-73
2022/08/05 03:07:18;;;;;;;4.60;3.05;;;;;;;23.11;60.89;92819.41;2070769;69;20200;-73
2022/08/05 03:09:44;;;;;;;4.07;3.22;;;;;;;23.22;60.65;92821.00;2070906;69;20248;-74
2022/08/05 03:12:28;;;;;;;4.05;3.35;;;;;;;23.39;59.96;92819.13;2070700;69;20151;-75
2022/08/05 03:14:54;;;;;;;5.00;3.35;;;;;;;23.31;60.66;92821.88;2071208;69;20657;-75
2022/08/05 03:17:19;;;;;;;3.22;2.92;;;;;;;23.10;62.22;92814.38;2071193;69;20241;-74
2022/08/05 03:19:45;;;;;;;3.47;3.17;;;;;;;23.19;61.23;92815.94;2071213;69;20453;-75
2022/08/05 03:22:11;;;;;;;3.78;3.10;;;;;;;23.21;61.23;92810.94;2071420;69;20477;-75
2022/08/05 03:24:36;;;;;;;3.53;3.20;;;;;;;23.26;61.11;92817.47;2071299;69;20560;-74
2022/08/05 03:27:02;;;;;;;3.75;3.35;;;;;;;23.26;59.74;92803.13;2071355;69;20200;-75
2022/08/05 03:29:28;;;;;;;4.07;3.40;;;;;;;23.07;60.67;92805.72;2071312;69;20144;-74
2022/08/05 03:31:54;;;;;;;5.90;3.35;;;;;;;23.18;61.34;92797.97;2071330;69;20654;-75
2022/08/05 03:34:20;;;;;;;3.70;3.40;;;;;;;22.86;63.41;92803.88;2071187;69;20148;-74
2022/08/05 03:36:46;;;;;;;6.22;3.05;;;;;;;23.08;61.83;92800.69;2071231;69;20242;-75
2022/08/05 03:39:12;;;;;;;7.00;3.58;;;;;;;23.14;61.73;92795.06;2071323;69;20148;-75
2022/08/05 03:41:37;;;;;;;5.30;3.28;;;;;;;23.13;62.07;92804.34;2070935;69;20192;-75
2022/08/05 03:44:03;;;;;;;4.25;3.33;;;;;;;23.07;61.16;92794.22;2071269;69;20342;-75
2022/08/05 03:46:29;;;;;;;5.32;3.60;;;;;;;23.02;62.34;92786.25;2071369;69;20144;-75
2022/08/05 03:48:54;;;;;;;3.47;3.13;;;;;;;22.72;64.22;92792.19;2071089;69;20148;-75
2022/08/05 03:51:28;;;;;;;7.07;3.65;;;;;;;23.04;61.53;92792.72;2071247;69;20288;-75
2022/08/05 03:53:56;;;;;;;3.80;3.28;;;;;;;23.15;61.01;92784.31;2071095;69;20180;-75
2022/08/05 03:56:37;;;;;;;6.05;3.67;;;;;;;22.72;63.64;92783.56;2067801;69;20243;-75
2022/08/05 03:59:07;;;;;;;5.95;3.72;;;;;;;22.90;62.75;92788.91;2071189;69;20140;-75
2022/08/05 04:01:38;;;;;;;3.92;3.50;;;;;;;22.92;61.38;92789.69;2071127;69;20223;-75
2022/08/05 04:04:06;;;;;;;6.40;3.30;;;;;;;23.10;60.48;92789.25;2071124;69;20156;-75
2022/08/05 04:06:33;;;;;;;8.35;3.80;;;;;;;23.02;61.35;92803.47;2071118;69;20140;-75
2022/08/05 04:09:00;;;;;;;5.93;3.85;;;;;;;22.99;61.25;92785.47;2071042;69;20164;-76
2022/08/05 04:11:26;;;;;;;9.10;3.97;;;;;;;22.94;62.54;92783.97;2067659;69;20159;-76
2022/08/05 04:13:54;;;;;;;4.70;3.63;;;;;;;23.05;61.74;92796.34;2071110;69;20160;-74
2022/08/05 04:16:20;;;;;;;3.90;3.47;;;;;;;23.12;61.38;92788.56;2071171;69;20144;-74
2022/08/05 04:18:45;;;;;;;4.45;3.50;;;;;;;23.01;62.27;92787.69;2071030;69;20140;-74
2022/08/05 04:21:11;;;;;;;3.70;3.33;;;;;;;23.21;60.99;92787.25;2071220;69;20171;-74
2022/08/05 04:23:38;;;;;;;4.70;3.63;;;;;;;22.77;63.73;92790.81;2067645;69;20282;-73
2022/08/05 04:26:04;;;;;;;6.93;3.72;;;;;;;22.55;64.80;92773.97;2071257;69;20165;-74
2022/08/05 04:28:30;;;;;;;5.97;3.85;;;;;;;22.55;64.05;92771.84;2071378;69;20136;-74
2022/08/05 04:30:56;;;;;;;6.95;3.83;;;;;;;22.47;65.33;92770.97;2071481;69;20586;-74
2022/08/05 04:33:22;;;;;;;7.03;3.85;;;;;;;22.67;63.82;92777.03;2071338;69;20199;-74
2022/08/05 04:35:47;;;;;;;8.07;4.28;;;;;;;22.83;63.54;92776.59;2072735;69;20239;-75
2022/08/05 04:38:13;;;;;;;4.60;3.70;;;;;;;22.89;62.38;92776.72;2075006;69;20171;-74
2022/08/05 04:40:40;;;;;;;7.15;3.67;;;;;;;22.98;61.41;92786.19;2075130;69;20132;-74
2022/08/05 04:43:06;;;;;;;5.80;3.78;;;;;;;22.94;61.84;92774.63;2075046;69;20147;-74
2022/08/05 04:45:33;;;;;;;7.10;3.42;;;;;;;23.04;60.24;92772.63;2074944;69;20221;-74
2022/08/05 04:48:07;;;;;;;6.53;4.00;;;;;;;22.88;63.20;92791.75;2074768;69;20222;-74
2022/08/05 04:50:44;;;;;;;4.25;3.50;;;;;;;22.80;63.09;92780.84;2074939;69;20156;-73
2022/08/05 04:53:11;;;;;;;12.70;8.40;;;;;;;22.83;62.32;92771.56;2073649;69;20231;-73
2022/08/05 04:55:39;;;;;;;4.07;3.55;;;;;;;22.46;64.47;92775.97;2073020;69;20476;-72
2022/08/05 04:58:07;;;;;;;13.15;8.98;;;;;;;22.76;62.06;92775.75;2073227;69;20144;-74
2022/08/05 05:00:35;;;;;;;6.38;4.05;;;;;;;22.88;62.04;92775.25;2074956;69;20274;-74
2022/08/05 05:03:02;;;;;;;4.50;3.75;;;;;;;22.65;62.62;92779.16;2074771;69;20136;-73
2022/08/05 05:05:29;;;;;;;24.00;14.38;;;;;;;22.83;62.02;92779.47;2075028;69;20235;-74
2022/08/05 05:08:06;;;;;;;7.43;4.20;;;;;;;22.95;60.18;92779.66;2075024;69;20192;-75
2022/08/05 05:10:42;;;;;;;5.25;3.40;;;;;;;22.96;62.31;92792.63;2075000;69;20144;-74
2022/08/05 05:13:14;;;;;;;4.93;3.78;;;;;;;22.83;63.57;92800.28;2074864;69;20144;-74
2022/08/05 05:15:40;;;;;;;3.95;3.50;;;;;;;22.91;62.35;92796.09;2074998;69;20199;-74
2022/08/05 05:18:07;;;;;;;5.20;4.03;;;;;;;22.91;62.89;92804.72;2074830;69;20172;-74
2022/08/05 05:20:34;;;;;;;6.53;3.28;;;;;;;23.05;60.18;92802.09;2071522;69;20682;-74
2022/08/05 05:23:00;;;;;;;7.90;3.90;;;;;;;22.87;61.15;92801.78;2074788;69;20191;-74
2022/08/05 05:25:27;;;;;;;4.50;3.85;;;;;;;22.90;61.56;92804.00;2074971;69;20154;-75
2022/08/05 05:27:54;;;;;;;5.53;3.90;;;;;;;22.99;60.92;92811.31;2068681;69;20223;-75
2022/08/05 05:30:21;;;;;;;8.38;4.18;;;;;;;22.67;63.01;92805.72;2074816;69;20575;-75
2022/08/05 05:32:47;;;;;;;6.15;4.00;;;;;;;22.67;63.78;92805.72;2071531;69;20163;-74
2022/08/05 05:35:13;;;;;;;4.35;3.88;;;;;;;22.93;62.06;92799.75;2074674;69;20552;-75
2022/08/05 05:37:56;;;;;;;6.70;4.07;;;;;;;22.88;62.32;92806.81;2074805;69;20151;-75
2022/08/05 05:40:23;;;;;;;4.22;3.78;;;;;;;22.65;63.29;92805.69;2074620;69;20233;-75
2022/08/05 05:42:50;;;;;;;7.10;3.88;;;;;;;22.98;61.69;92801.25;2074760;69;20512;-75
2022/08/05 05:45:16;;;;;;;10.02;4.32;;;;;;;22.62;63.48;92794.88;2074742;69;20167;-73
2022/08/05 05:47:42;;;;;;;6.57;3.75;;;;;;;22.56;64.03;92804.09;2074952;69;20154;-74
2022/08/05 05:50:09;;;;;;;6.45;4.28;;;;;;;22.74;62.95;92800.84;2074736;69;20599;-74
2022/08/05 05:52:35;;;;;;;10.80;4.10;;;;;;;23.00;62.62;92809.91;2071406;69;20136;-74
2022/08/05 05:55:05;;;;;;;4.53;3.75;;;;;;;23.25;60.54;92804.53;2074755;69;20661;-75
2022/08/05 05:57:30;;;;;;;5.50;4.25;;;;;;;23.33;60.83;92822.63;2074815;69;20226;-74
2022/08/05 05:59:56;;;;;;;5.82;4.13;;;;;;;23.22;61.73;92808.81;2074859;69;20151;-74
2022/08/05 06:02:22;;;;;;;4.57;4.03;;;;;;;23.30;61.13;92808.94;2074823;69;20152;-75
2022/08/05 06:04:47;;;;;;;4.07;3.67;;;;;;;23.43;59.66;92804.81;2074690;69;20243;-75
2022/08/05 06:07:13;;;;;;;6.43;3.85;;;;;;;23.62;59.05;92807.94;2074843;69;20148;-74
2022/08/05 06:09:39;;;;;;;6.82;4.65;;;;;;;23.78;59.71;92806.06;2074957;69;20633;-75
2022/08/05 06:12:05;;;;;;;8.40;4.55;;;;;;;23.71;58.89;92803.78;2074899;69;20216;-75
2022/08/05 06:14:32;;;;;;;6.15;4.18;;;;;;;23.38;60.67;92814.09;2074778;69;20179;-75
2022/08/05 06:16:58;;;;;;;10.05;6.35;;;;;;;23.43;60.31;92807.69;2074949;69;20143;-76
2022/08/05 06:19:25;;;;;;;5.78;4.20;;;;;;;23.57;59.72;92801.41;2071351;69;20178;-76
2022/08/05 06:21:51;;;;;;;9.20;5.32;;;;;;;23.77;59.23;92807.47;2074683;69;20201;-75
2022/08/05 06:24:16;;;;;;;5.97;4.28;;;;;;;23.64;59.53;92794.38;2071347;69;20557;-73
2022/08/05 06:26:42;;;;;;;5.97;4.10;;;;;;;23.51;60.50;92790.56;2074832;69;20637;-73
2022/08/05 06:29:08;;;;;;;6.07;4.38;;;;;;;23.78;59.00;92785.22;2071326;69;20179;-75
2022/08/05 06:31:34;;;;;;;6.13;3.80;;;;;;;23.57;60.08;92789.94;2074653;69;20135;-74
2022/08/05 06:33:59;;;;;;;9.93;4.43;;;;;;;23.14;63.17;92791.44;2071146;69;20235;-75
2022/08/05 06:36:25;;;;;;;6.93;4.63;;;;;;;23.40;62.18;92794.00;2074659;69;20224;-75
2022/08/05 06:38:53;;;;;;;5.85;4.03;;;;;;;23.59;61.36;92798.56;2074768;69;20248;-74
2022/08/05 06:41:20;;;;;;;7.05;4.30;;;;;;;23.62;60.66;92797.19;2074570;69;20182;-74
2022/08/05 06:43:46;;;;;;;4.95;4.03;;;;;;;23.91;59.70;92801.16;2074718;69;20144;-75
2022/08/05 06:46:12;;;;;;;8.93;5.63;;;;;;;24.24;58.37;92801.59;2074724;69;20193;-74
2022/08/05 06:48:37;;;;;;;7.30;3.90;;;;;;;24.31;59.25;92800.94;2071126;69;20180;-74
2022/08/05 06:51:04;;;;;;;4.95;3.67;;;;;;;24.35;57.86;92798.09;2071183;69;20246;-74
2022/08/05 06:53:29;;;;;;;9.52;3.88;;;;;;;24.46;59.80;92798.25;2074666;69;20507;-74
2022/08/05 06:55:59;;;;;;;6.20;3.72;;;;;;;24.26;59.30;92798.72;2074728;69;20151;-74
2022/08/05 06:58:29;;;;;;;6.60;3.95;;;;;;;24.53;57.19;92797.59;2072343;69;20187;-74
2022/08/05 07:00:58;;;;;;;7.13;3.92;;;;;;;24.62;58.10;92795.53;2071378;69;20168;-74
2022/08/05 07:03:24;;;;;;;5.03;3.90;;;;;;;24.82;58.17;92797.88;2071118;69;20147;-75
2022/08/05 07:05:49;;;;;;;15.70;9.52;;;;;;;24.75;58.59;92799.25;2071231;69;20506;-73
2022/08/05 07:08:15;;;;;;;5.88;3.70;;;;;;;24.89;58.20;92802.28;2067870;69;20249;-73
2022/08/05 07:10:41;;;;;;;4.82;3.85;;;;;;;25.07;57.68;92807.47;2068107;69;20167;-74
2022/08/05 07:18:35;;;;;;;5.63;4.05;;;;;;;25.64;56.42;92798.53;2074437;69;20152;-74
2022/08/05 07:21:01;;;;;;;5.80;3.42;;;;;;;25.84;59.74;92802.28;2074695;69;20175;-74
2022/08/05 07:23:27;;;;;;;5.15;3.95;;;;;;;25.74;56.00;92798.59;2074508;69;20227;-74
2022/08/05 07:25:53;;;;;;;4.70;3.75;;;;;;;26.06;55.54;92803.81;2073812;69;20156;-74
2022/08/05 07:28:19;;;;;;;5.25;4.15;;;;;;;26.29;56.26;92798.88;2073858;69;20136;-75
2022/08/05 07:30:45;;;;;;;6.72;3.78;;;;;;;26.43;57.60;92793.16;2074460;69;20251;-75
2022/08/05 07:33:11;;;;;;;4.55;3.80;;;;;;;26.67;55.49;92789.63;2071098;69;20143;-75
2022/08/05 07:35:38;;;;;;;5.63;3.60;;;;;;;26.88;52.86;92793.25;2074538;69;20687;-75
2022/08/05 07:38:03;;;;;;;5.90;4.10;;;;;;;27.28;54.04;92794.75;2073730;69;20183;-75
2022/08/05 07:40:31;;;;;;;5.13;3.97;;;;;;;27.38;53.26;92780.31;2073500;69;20152;-75
2022/08/05 07:42:57;;;;;;;5.78;4.10;;;;;;;27.67;54.67;92786.03;2070141;69;20171;-75
2022/08/05 07:45:23;;;;;;;3.88;3.45;;;;;;;28.00;53.70;92778.03;2073514;69;20183;-75
2022/08/05 07:47:48;;;;;;;5.40;3.67;;;;;;;28.30;53.36;92772.13;2073493;69;20258;-75
2022/08/05 07:50:14;;;;;;;5.28;3.58;;;;;;;28.51;53.43;92778.56;2069998;69;20245;-75
2022/08/05 07:52:42;;;;;;;5.05;3.80;;;;;;;28.68;50.17;92779.19;2073917;69;20154;-75
2022/08/05 07:55:08;;;;;;;4.15;3.75;;;;;;;28.69;51.66;92782.81;2074481;69;20148;-74
2022/08/05 07:57:34;;;;;;;5.15;3.55;;;;;;;28.94;49.69;92775.41;2074439;69;20712;-74
2022/08/05 08:00:00;;;;;;;4.13;3.65;;;;;;;28.80;49.53;92776.22;2071012;69;20151;-73
2022/08/05 08:02:28;;;;;;;6.78;3.75;;;;;;;29.27;46.53;92775.19;2074464;69;20163;-74
2022/08/05 08:04:54;;;;;;;5.50;3.97;;;;;;;28.78;46.40;92772.63;2074813;69;20195;-75
2022/08/05 08:07:21;;;;;;;4.28;3.80;;;;;;;28.17;47.99;92775.78;2074872;69;20208;-75
2022/08/05 08:09:47;;;;;;;5.28;3.40;;;;;;;28.45;47.57;92784.38;2074961;69;20139;-76
2022/08/05 08:12:13;;;;;;;4.03;3.30;;;;;;;28.41;49.46;92775.00;2074913;69;20155;-73
2022/08/05 08:14:43;;;;;;;6.35;3.92;;;;;;;28.33;49.06;92776.44;2074881;69;20151;-74
2022/08/05 08:17:11;;;;;;;5.95;3.80;;;;;;;28.75;49.38;92771.91;2074971;69;20148;-74
2022/08/05 08:19:38;;;;;;;3.95;3.40;;;;;;;28.45;49.29;92780.75;2074814;69;20151;-73
2022/08/05 08:22:04;;;;;;;3.50;3.20;;;;;;;29.25;47.25;92783.91;2074936;69;20183;-74
2022/08/05 08:24:30;;;;;;;4.38;3.97;;;;;;;29.40;46.19;92772.91;2074884;69;20148;-74
2022/08/05 08:26:56;;;;;;;5.70;3.90;;;;;;;28.93;48.26;92773.25;2074936;69;20174;-74
2022/08/05 08:29:22;;;;;;;6.45;3.75;;;;;;;29.30;46.96;92770.81;2074452;69;20242;-74
2022/08/05 08:31:48;;;;;;;4.95;3.90;;;;;;;29.02;48.14;92771.75;2075070;69;20576;-74
2022/08/05 08:34:13;;;;;;;5.57;3.65;;;;;;;28.98;47.49;92771.78;2074796;69;20152;-74
2022/08/05 08:36:39;;;;;;;4.70;3.75;;;;;;;29.34;46.62;92768.59;2074853;69;20184;-74
2022/08/05 08:39:05;;;;;;;5.10;4.10;;;;;;;29.61;45.83;92768.41;2071450;69;20238;-74
2022/08/05 08:41:34;;;;;;;4.82;3.80;;;;;;;30.01;44.30;92770.16;2074877;69;20152;-73
2022/08/05 08:44:00;;;;;;;5.00;4.10;;;;;;;29.72;44.84;92769.72;2074731;69;20147;-74
2022/08/05 08:46:30;;;;;;;4.22;3.70;;;;;;;30.34;43.53;92761.81;2074854;69;20220;-74
2022/08/05 08:48:56;;;;;;;5.65;4.20;;;;;;;30.17;43.78;92762.75;2074852;69;20288;-75
2022/08/05 08:51:31;;;;;;;7.37;4.60;;;;;;;30.73;45.12;92760.59;2075010;69;20148;-74
2022/08/05 08:53:57;;;;;;;16.50;5.13;;;;;;;30.93;43.60;92759.56;2074837;69;20352;-75
2022/08/05 08:56:22;;;;;;;6.78;4.53;;;;;;;31.03;43.27;92757.25;2074979;69;20152;-75
2022/08/05 08:58:48;;;;;;;5.07;4.40;;;;;;;31.67;42.71;92756.25;2074975;69;20136;-77
2022/08/05 09:01:14;;;;;;;18.77;4.90;;;;;;;31.86;43.86;92761.00;2074903;69;20225;-76
2022/08/05 09:03:40;;;;;;;6.38;4.20;;;;;;;32.02;41.52;92754.13;2074672;69;20273;-74
2022/08/05 09:06:06;;;;;;;4.25;3.85;;;;;;;31.45;40.76;92760.25;2074797;69;20152;-74
2022/08/05 09:08:32;;;;;;;4.55;3.70;;;;;;;31.41;42.11;92755.22;2074856;69;20139;-74
2022/08/05 09:10:58;;;;;;;5.40;4.00;;;;;;;31.00;42.02;92760.94;2074816;69;20202;-74
2022/08/05 09:13:24;;;;;;;5.68;4.20;;;;;;;31.31;42.92;92767.00;2074769;69;20144;-75
2022/08/05 09:15:51;;;;;;;4.35;3.95;;;;;;;31.23;43.74;92770.03;2074841;69;20655;-74
2022/08/05 09:18:17;;;;;;;5.13;3.90;;;;;;;31.23;45.99;92770.03;2074683;69;20220;-74
2022/08/05 09:20:44;;;;;;;5.75;3.50;;;;;;;31.25;45.57;92764.91;2071472;69;20562;-75
2022/08/05 09:23:11;;;;;;;5.82;3.70;;;;;;;31.40;46.20;92768.31;2074731;69;20132;-74
2022/08/05 09:25:46;;;;;;;5.47;4.20;;;;;;;31.26;46.32;92765.63;2071424;69;20159;-74
2022/08/05 09:28:19;;;;;;;4.10;3.70;;;;;;;31.71;46.45;92765.63;2074824;69;20213;-74
2022/08/05 09:30:56;;;;;;;6.45;4.18;;;;;;;31.72;45.46;92763.41;2071354;69;20164;-74
2022/08/05 09:33:24;;;;;;;6.43;4.18;;;;;;;31.92;44.33;92754.34;2074662;69;20144;-74
2022/08/05 09:36:07;;;;;;;4.50;4.10;;;;;;;32.39;42.78;92762.16;2074756;69;20195;-74
2022/08/05 09:38:33;;;;;;;5.55;4.45;;;;;;;32.36;41.43;92758.56;2074647;69;20167;-74
2022/08/05 09:41:04;;;;;;;5.38;4.40;;;;;;;31.98;40.49;92748.41;2074812;69;20606;-75
2022/08/05 09:43:35;;;;;;;4.93;4.50;;;;;;;32.03;41.61;92754.88;2074675;69;20148;-74
2022/08/05 09:46:04;;;;;;;5.43;4.30;;;;;;;31.85;42.78;92753.03;2074785;69;20229;-75
2022/08/05 09:48:30;;;;;;;6.10;4.20;;;;;;;32.19;42.97;92745.81;2074629;69;20152;-74
2022/08/05 09:50:59;;;;;;;4.65;4.15;;;;;;;32.70;44.54;92746.97;2074643;69;20172;-74
2022/08/05 09:53:26;;;;;;;7.28;4.70;;;;;;;32.38;43.09;92746.88;2074795;69;20159;-74
2022/08/05 09:55:55;;;;;;;5.55;4.53;;;;;;;31.85;43.15;92736.28;2074678;69;20131;-75
2022/08/05 09:58:21;;;;;;;5.78;4.20;;;;;;;32.81;40.13;92731.41;2071350;69;20171;-74
2022/08/05 10:00:57;;;;;;;4.82;4.35;;;;;;;33.84;39.24;92726.75;2074731;69;20583;-75
2022/08/05 10:03:23;;;;;;;7.70;4.30;;;;;;;34.54;39.04;92725.59;2074517;69;20144;-76
2022/08/05 10:06:06;;;;;;;6.57;4.65;;;;;;;34.55;37.19;92715.34;2071311;69;20579;-75
2022/08/05 10:08:33;;;;;;;6.40;4.40;;;;;;;35.31;36.35;92720.28;2074801;69;20679;-75
2022/08/05 10:11:03;;;;;;;5.22;3.85;;;;;;;35.25;34.78;92717.56;2074653;69;20124;-75
2022/08/05 10:13:30;;;;;;;5.15;3.40;;;;;;;34.86;34.05;92726.81;2074614;69;20223;-75
2022/08/05 10:15:57;;;;;;;4.95;3.38;;;;;;;34.63;33.80;92724.56;2074623;69;20155;-75
2022/08/05 10:18:26;;;;;;;3.22;3.00;;;;;;;35.19;34.04;92702.41;2074510;69;20140;-75
2022/08/05 10:20:58;;;;;;;3.38;3.05;;;;;;;35.96;32.91;92713.78;2071365;69;20246;-75
2022/08/05 10:23:27;;;;;;;3.65;3.35;;;;;;;36.10;31.59;92711.06;2074738;69;20311;-75
2022/08/05 10:25:57;;;;;;;4.90;3.20;;;;;;;35.83;30.71;92704.69;2071109;69;20155;-74
2022/08/05 10:28:23;;;;;;;6.28;3.95;;;;;;;36.37;30.95;92704.25;2074321;69;20675;-76
2022/08/05 10:30:52;;;;;;;6.22;3.47;;;;;;;36.01;31.04;92701.13;2073317;69;20156;-76
2022/08/05 10:33:19;;;;;;;4.97;3.50;;;;;;;35.37;32.03;92717.19;2071275;69;20590;-76
2022/08/05 10:35:45;;;;;;;3.40;2.83;;;;;;;35.38;32.66;92701.06;2071429;69;21040;-75
2022/08/05 10:38:14;;;;;;;4.63;3.50;;;;;;;34.67;34.12;92694.50;2071297;69;20191;-76
2022/08/05 10:40:45;;;;;;;5.90;3.80;;;;;;;34.00;36.12;92688.41;2071164;69;20144;-76
2022/08/05 10:43:40;;;;;;;5.00;3.75;;;;;;;35.59;34.43;92695.25;2070979;69;20137;-76
2022/08/05 10:46:12;;;;;;;4.07;3.67;;;;;;;34.45;34.42;92669.56;2071198;69;20174;-75
2022/08/05 10:48:43;;;;;;;4.18;3.47;;;;;;;34.33;34.54;92685.25;2070753;69;20579;-75
2022/08/05 10:51:14;;;;;;;6.18;3.50;;;;;;;35.06;34.35;92691.13;2071132;69;20180;-75
2022/08/05 10:53:59;;;;;;;4.10;3.50;;;;;;;35.19;33.32;92693.63;2071170;69;20243;-74
2022/08/05 10:56:28;;;;;;;4.55;3.58;;;;;;;35.32;34.02;92680.03;2067696;69;20168;-75
2022/08/05 10:58:53;;;;;;;4.65;3.42;;;;;;;34.92;34.01;92682.78;2070867;69;20168;-73
2022/08/05 11:01:28;;;;;;;4.57;3.10;;;;;;;34.96;32.42;92688.53;2070993;69;20258;-74
2022/08/05 11:04:16;;;;;;;3.58;3.25;;;;;;;33.95;34.79;92690.00;2071065;69;20145;-75
2022/08/05 11:06:57;;;;;;;9.13;3.10;;;;;;;33.52;35.06;92691.09;2070793;69;20156;-74
2022/08/05 11:09:25;;;;;;;3.90;3.35;;;;;;;33.88;34.48;92697.44;2070965;69;20259;-74
2022/08/05 11:11:53;;;;;;;5.53;3.25;;;;;;;33.89;35.56;92704.72;2070870;69;20159;-72
2022/08/05 11:14:37;;;;;;;3.75;3.40;;;;;;;33.99;34.60;92709.59;2070737;69;20152;-74
2022/08/05 11:17:25;;;;;;;5.07;3.45;;;;;;;33.92;34.36;92722.91;2064725;69;20156;-75
2022/08/05 11:20:36;;;;;;;8.27;3.58;;;;;;;33.51;34.36;92742.19;2070778;69;20205;-75
2022/08/05 11:23:29;;;;;;;3.90;3.50;;;;;;;31.70;35.44;92740.16;2070944;69;20132;-75
2022/08/05 11:26:04;;;;;;;5.00;3.40;;;;;;;32.74;36.69;92735.94;2068723;69;20211;-75
2022/08/05 11:28:33;;;;;;;4.80;3.30;;;;;;;33.17;36.03;92737.88;2071112;69;20164;-75
2022/08/05 11:31:02;;;;;;;4.38;3.33;;;;;;;33.35;38.27;92736.72;2067715;69;20223;-75
2022/08/05 11:33:36;;;;;;;3.97;3.40;;;;;;;33.22;38.64;92729.75;2070806;69;20602;-73
2022/08/05 11:36:04;;;;;;;3.78;3.38;;;;;;;33.03;39.14;92738.22;2070820;69;20149;-74
2022/08/05 11:38:42;;;;;;;4.05;3.40;;;;;;;32.95;39.95;92742.06;2070785;69;20156;-74
2022/08/05 11:41:14;;;;;;;4.10;3.42;;;;;;;32.60;39.85;92751.53;2070944;69;20156;-76
2022/08/05 11:43:51;;;;;;;;;;;;;;;32.53;38.31;92767.72;2071232;69;20220;-74
2022/08/05 11:46:17;;;;;;;3.97;3.35;;;;;;;32.56;38.61;92777.84;2070903;69;20579;-74
2022/08/05 11:48:44;;;;;;;3.70;3.40;;;;;;;32.68;37.97;92776.16;2067379;69;20236;-74